sensor_id;sensor_type;location;lat;lon;timestamp;P1;durP1;ratioP1;P2;durP2;ratioP2
3523;SDS011;1776;53.330;11.498;2024-03-25T00:00:15;11.97;;;7.50;;
3523;SDS011;1776;53.330;11.498;2024-03-25T00:02:41;13.83;;;7.97;;
3523;SDS011;1776;53.330;11.498;2024-03-25T00:05:07;10.10;;;7.37;;
3523;SDS011;1776;53.330;11.498;2024-03-25T00:07:36;13.00;;;6.60;;
3523;SDS011;1776;53.330;11.498;2024-03-25T00:10:02;15.70;;;7.47;;
3523;SDS011;1776;53.330;11.498;2024-03-25T00:12:28;13.67;;;7.80;;
3523;SDS011;1776;53.330;11.498;2024-03-25T00:14:54;10.07;;;6.23;;
3523;SDS011;1776;53.330;11.498;2024-03-25T00:17:19;13.77;;;7.30;;
3523;SDS011;1776;53.330;11.498;2024-03-25T00:19:45;11.40;;;5.60;;
3523;SDS011;1776;53.330;11.498;2024-03-25T00:22:18;17.67;;;7.30;;
3523;SDS011;1776;53.330;11.498;2024-03-25T00:24:48;10.40;;;6.07;;
3523;SDS011;1776;53.330;11.498;2024-03-25T00:27:13;8.13;;;4.60;;
3523;SDS011;1776;53.330;11.498;2024-03-25T00:29:39;8.53;;;4.63;;
3523;SDS011;1776;53.330;11.498;2024-03-25T00:32:05;8.60;;;4.77;;
3523;SDS011;1776;53.330;11.498;2024-03-25T00:34:31;7.07;;;4.30;;
3523;SDS011;1776;53.330;11.498;2024-03-25T00:36:57;7.60;;;5.10;;
3523;SDS011;1776;53.330;11.498;2024-03-25T00:39:22;6.47;;;3.53;;
3523;SDS011;1776;53.330;11.498;2024-03-25T00:41:48;5.60;;;3.50;;
3523;SDS011;1776;53.330;11.498;2024-03-25T00:44:13;5.67;;;3.10;;
3523;SDS011;1776;53.330;11.498;2024-03-25T00:46:39;4.93;;;2.60;;
3523;SDS011;1776;53.330;11.498;2024-03-25T00:49:06;4.00;;;2.30;;
3523;SDS011;1776;53.330;11.498;2024-03-25T00:51:32;2.53;;;1.93;;
3523;SDS011;1776;53.330;11.498;2024-03-25T00:53:57;9.83;;;2.83;;
3523;SDS011;1776;53.330;11.498;2024-03-25T00:56:22;4.77;;;2.27;;
3523;SDS011;1776;53.330;11.498;2024-03-25T00:58:48;3.10;;;2.23;;
3523;SDS011;1776;53.330;11.498;2024-03-25T01:01:13;2.37;;;1.77;;
3523;SDS011;1776;53.330;11.498;2024-03-25T01:03:39;3.70;;;1.90;;
3523;SDS011;1776;53.330;11.498;2024-03-25T01:06:04;4.43;;;2.70;;
3523;SDS011;1776;53.330;11.498;2024-03-25T01:08:29;3.03;;;2.20;;
3523;SDS011;1776;53.330;11.498;2024-03-25T01:10:55;5.73;;;2.10;;
3523;SDS011;1776;53.330;11.498;2024-03-25T01:13:20;3.67;;;2.20;;
3523;SDS011;1776;53.330;11.498;2024-03-25T01:15:46;2.83;;;2.63;;
3523;SDS011;1776;53.330;11.498;2024-03-25T01:18:11;3.40;;;2.10;;
3523;SDS011;1776;53.330;11.498;2024-03-25T01:20:37;6.47;;;3.00;;
3523;SDS011;1776;53.330;11.498;2024-03-25T01:23:03;5.83;;;3.43;;
3523;SDS011;1776;53.330;11.498;2024-03-25T01:25:28;4.83;;;2.90;;
3523;SDS011;1776;53.330;11.498;2024-03-25T01:27:53;3.60;;;2.90;;
3523;SDS011;1776;53.330;11.498;2024-03-25T01:30:18;4.20;;;3.30;;
3523;SDS011;1776;53.330;11.498;2024-03-25T01:32:44;6.07;;;3.93;;
3523;SDS011;1776;53.330;11.498;2024-03-25T01:35:12;5.00;;;2.50;;
3523;SDS011;1776;53.330;11.498;2024-03-25T01:37:38;5.50;;;2.60;;
3523;SDS011;1776;53.330;11.498;2024-03-25T01:40:03;7.13;;;3.43;;
3523;SDS011;1776;53.330;11.498;2024-03-25T01:42:29;7.13;;;3.27;;
3523;SDS011;1776;53.330;11.498;2024-03-25T01:44:55;7.50;;;3.50;;
3523;SDS011;1776;53.330;11.498;2024-03-25T01:47:20;9.80;;;3.63;;
3523;SDS011;1776;53.330;11.498;2024-03-25T01:49:46;7.03;;;3.53;;
3523;SDS011;1776;53.330;11.498;2024-03-25T01:52:11;7.73;;;3.73;;
3523;SDS011;1776;53.330;11.498;2024-03-25T01:54:37;4.80;;;3.57;;
3523;SDS011;1776;53.330;11.498;2024-03-25T01:57:02;8.83;;;3.30;;
3523;SDS011;1776;53.330;11.498;2024-03-25T01:59:28;5.90;;;3.37;;
3523;SDS011;1776;53.330;11.498;2024-03-25T02:01:54;5.50;;;3.10;;
3523;SDS011;1776;53.330;11.498;2024-03-25T02:04:20;6.10;;;3.00;;
3523;SDS011;1776;53.330;11.498;2024-03-25T02:06:46;6.83;;;3.13;;
3523;SDS011;1776;53.330;11.498;2024-03-25T02:09:11;3.93;;;2.77;;
3523;SDS011;1776;53.330;11.498;2024-03-25T02:11:38;5.33;;;3.03;;
3523;SDS011;1776;53.330;11.498;2024-03-25T02:14:04;5.20;;;3.10;;
3523;SDS011;1776;53.330;11.498;2024-03-25T02:16:30;5.83;;;2.90;;
3523;SDS011;1776;53.330;11.498;2024-03-25T02:18:55;4.47;;;2.70;;
3523;SDS011;1776;53.330;11.498;2024-03-25T02:21:21;8.53;;;3.10;;
3523;SDS011;1776;53.330;11.498;2024-03-25T02:23:46;3.03;;;2.40;;
3523;SDS011;1776;53.330;11.498;2024-03-25T02:26:14;5.03;;;2.50;;
3523;SDS011;1776;53.330;11.498;2024-03-25T02:28:40;4.93;;;2.10;;
3523;SDS011;1776;53.330;11.498;2024-03-25T02:31:05;4.97;;;2.73;;
3523;SDS011;1776;53.330;11.498;2024-03-25T02:33:31;4.80;;;2.83;;
3523;SDS011;1776;53.330;11.498;2024-03-25T02:35:56;6.30;;;2.90;;
3523;SDS011;1776;53.330;11.498;2024-03-25T02:38:21;3.83;;;2.73;;
3523;SDS011;1776;53.330;11.498;2024-03-25T02:40:47;10.03;;;3.80;;
3523;SDS011;1776;53.330;11.498;2024-03-25T02:43:14;8.90;;;3.33;;
3523;SDS011;1776;53.330;11.498;2024-03-25T02:45:39;7.67;;;4.00;;
3523;SDS011;1776;53.330;11.498;2024-03-25T02:48:05;6.70;;;3.80;;
3523;SDS011;1776;53.330;11.498;2024-03-25T02:50:30;8.10;;;3.77;;
3523;SDS011;1776;53.330;11.498;2024-03-25T02:52:55;6.53;;;3.83;;
3523;SDS011;1776;53.330;11.498;2024-03-25T02:55:21;5.03;;;3.33;;
3523;SDS011;1776;53.330;11.498;2024-03-25T02:57:46;7.30;;;3.87;;
3523;SDS011;1776;53.330;11.498;2024-03-25T03:00:11;8.80;;;3.40;;
3523;SDS011;1776;53.330;11.498;2024-03-25T03:02:37;8.37;;;4.30;;
3523;SDS011;1776;53.330;11.498;2024-03-25T03:05:04;8.90;;;4.60;;
3523;SDS011;1776;53.330;11.498;2024-03-25T03:07:30;14.73;;;4.43;;
3523;SDS011;1776;53.330;11.498;2024-03-25T03:09:55;5.77;;;3.47;;
3523;SDS011;1776;53.330;11.498;2024-03-25T03:12:20;12.70;;;5.13;;
3523;SDS011;1776;53.330;11.498;2024-03-25T03:14:45;7.67;;;3.57;;
3523;SDS011;1776;53.330;11.498;2024-03-25T03:17:11;8.57;;;4.67;;
3523;SDS011;1776;53.330;11.498;2024-03-25T03:19:36;7.30;;;3.80;;
3523;SDS011;1776;53.330;11.498;2024-03-25T03:22:01;7.30;;;3.77;;
3523;SDS011;1776;53.330;11.498;2024-03-25T03:24:27;7.90;;;4.23;;
3523;SDS011;1776;53.330;11.498;2024-03-25T03:26:52;6.77;;;5.00;;
3523;SDS011;1776;53.330;11.498;2024-03-25T03:29:18;5.53;;;3.47;;
3523;SDS011;1776;53.330;11.498;2024-03-25T03:31:43;10.80;;;4.07;;
3523;SDS011;1776;53.330;11.498;2024-03-25T03:34:09;5.40;;;3.50;;
3523;SDS011;1776;53.330;11.498;2024-03-25T03:36:34;5.80;;;3.07;;
3523;SDS011;1776;53.330;11.498;2024-03-25T03:38:59;7.10;;;3.90;;
3523;SDS011;1776;53.330;11.498;2024-03-25T03:41:24;5.03;;;4.00;;
3523;SDS011;1776;53.330;11.498;2024-03-25T03:43:50;4.80;;;3.80;;
3523;SDS011;1776;53.330;11.498;2024-03-25T03:46:15;5.40;;;3.53;;
3523;SDS011;1776;53.330;11.498;2024-03-25T03:48:40;7.03;;;3.67;;
3523;SDS011;1776;53.330;11.498;2024-03-25T03:51:06;6.53;;;3.97;;
3523;SDS011;1776;53.330;11.498;2024-03-25T03:53:34;8.00;;;4.60;;
3523;SDS011;1776;53.330;11.498;2024-03-25T03:56:01;6.27;;;3.20;;
3523;SDS011;1776;53.330;11.498;2024-03-25T03:58:30;18.23;;;4.23;;
3523;SDS011;1776;53.330;11.498;2024-03-25T04:00:55;11.60;;;4.50;;
3523;SDS011;1776;53.330;11.498;2024-03-25T04:03:21;7.63;;;3.50;;
3523;SDS011;1776;53.330;11.498;2024-03-25T04:05:46;9.13;;;4.70;;
3523;SDS011;1776;53.330;11.498;2024-03-25T04:08:11;6.17;;;3.20;;
3523;SDS011;1776;53.330;11.498;2024-03-25T04:10:37;5.93;;;4.13;;
3523;SDS011;1776;53.330;11.498;2024-03-25T04:13:03;3.20;;;2.70;;
3523;SDS011;1776;53.330;11.498;2024-03-25T04:15:29;7.13;;;4.10;;
3523;SDS011;1776;53.330;11.498;2024-03-25T04:17:57;5.17;;;2.90;;
3523;SDS011;1776;53.330;11.498;2024-03-25T04:20:22;5.90;;;3.10;;
3523;SDS011;1776;53.330;11.498;2024-03-25T04:22:48;7.30;;;3.67;;
3523;SDS011;1776;53.330;11.498;2024-03-25T04:25:14;6.00;;;3.80;;
3523;SDS011;1776;53.330;11.498;2024-03-25T04:27:39;8.00;;;3.47;;
3523;SDS011;1776;53.330;11.498;2024-03-25T04:30:06;4.30;;;3.03;;
3523;SDS011;1776;53.330;11.498;2024-03-25T04:32:33;5.83;;;4.20;;
3523;SDS011;1776;53.330;11.498;2024-03-25T04:34:58;7.30;;;3.40;;
3523;SDS011;1776;53.330;11.498;2024-03-25T04:37:24;7.30;;;4.07;;
3523;SDS011;1776;53.330;11.498;2024-03-25T04:39:49;7.10;;;4.10;;
3523;SDS011;1776;53.330;11.498;2024-03-25T04:42:14;7.60;;;4.90;;
3523;SDS011;1776;53.330;11.498;2024-03-25T04:44:40;12.30;;;4.10;;
3523;SDS011;1776;53.330;11.498;2024-03-25T04:47:05;6.20;;;3.97;;
3523;SDS011;1776;53.330;11.498;2024-03-25T04:49:31;11.20;;;4.20;;
3523;SDS011;1776;53.330;11.498;2024-03-25T04:51:56;9.50;;;4.07;;
3523;SDS011;1776;53.330;11.498;2024-03-25T04:54:21;6.47;;;3.53;;
3523;SDS011;1776;53.330;11.498;2024-03-25T04:56:47;7.87;;;4.17;;
3523;SDS011;1776;53.330;11.498;2024-03-25T04:59:12;6.20;;;4.23;;
3523;SDS011;1776;53.330;11.498;2024-03-25T05:01:38;5.27;;;3.60;;
3523;SDS011;1776;53.330;11.498;2024-03-25T05:04:03;5.73;;;3.80;;
3523;SDS011;1776;53.330;11.498;2024-03-25T05:06:28;6.87;;;3.93;;
3523;SDS011;1776;53.330;11.498;2024-03-25T05:08:53;7.50;;;3.77;;
3523;SDS011;1776;53.330;11.498;2024-03-25T05:11:19;4.80;;;4.00;;
3523;SDS011;1776;53.330;11.498;2024-03-25T05:13:44;11.37;;;4.73;;
3523;SDS011;1776;53.330;11.498;2024-03-25T05:16:09;8.53;;;4.43;;
3523;SDS011;1776;53.330;11.498;2024-03-25T05:18:36;7.87;;;4.47;;
3523;SDS011;1776;53.330;11.498;2024-03-25T05:21:01;5.50;;;4.17;;
3523;SDS011;1776;53.330;11.498;2024-03-25T05:23:26;6.33;;;4.03;;
3523;SDS011;1776;53.330;11.498;2024-03-25T05:25:52;9.40;;;3.63;;
3523;SDS011;1776;53.330;11.498;2024-03-25T05:28:17;5.67;;;3.77;;
3523;SDS011;1776;53.330;11.498;2024-03-25T05:30:42;7.70;;;4.27;;
3523;SDS011;1776;53.330;11.498;2024-03-25T05:33:07;8.10;;;4.20;;
3523;SDS011;1776;53.330;11.498;2024-03-25T05:35:33;7.63;;;3.70;;
3523;SDS011;1776;53.330;11.498;2024-03-25T05:38:01;9.80;;;4.03;;
3523;SDS011;1776;53.330;11.498;2024-03-25T05:40:28;6.80;;;2.83;;
3523;SDS011;1776;53.330;11.498;2024-03-25T05:42:53;8.03;;;3.80;;
3523;SDS011;1776;53.330;11.498;2024-03-25T05:45:18;6.50;;;3.87;;
3523;SDS011;1776;53.330;11.498;2024-03-25T05:47:44;5.00;;;3.13;;
3523;SDS011;1776;53.330;11.498;2024-03-25T05:50:09;4.80;;;3.30;;
3523;SDS011;1776;53.330;11.498;2024-03-25T05:52:35;6.40;;;3.33;;
3523;SDS011;1776;53.330;11.498;2024-03-25T05:55:01;6.00;;;3.93;;
3523;SDS011;1776;53.330;11.498;2024-03-25T05:57:26;6.10;;;3.80;;
3523;SDS011;1776;53.330;11.498;2024-03-25T05:59:51;9.10;;;5.47;;
3523;SDS011;1776;53.330;11.498;2024-03-25T06:02:16;6.90;;;4.17;;
3523;SDS011;1776;53.330;11.498;2024-03-25T06:04:42;14.23;;;6.90;;
3523;SDS011;1776;53.330;11.498;2024-03-25T06:07:07;10.20;;;3.63;;
3523;SDS011;1776;53.330;11.498;2024-03-25T06:09:33;9.00;;;5.50;;
3523;SDS011;1776;53.330;11.498;2024-03-25T06:11:58;8.23;;;4.17;;
3523;SDS011;1776;53.330;11.498;2024-03-25T06:14:24;6.33;;;3.80;;
3523;SDS011;1776;53.330;11.498;2024-03-25T06:16:49;7.43;;;4.23;;
3523;SDS011;1776;53.330;11.498;2024-03-25T06:19:14;7.47;;;3.80;;
3523;SDS011;1776;53.330;11.498;2024-03-25T06:21:39;7.67;;;4.73;;
3523;SDS011;1776;53.330;11.498;2024-03-25T06:24:05;9.60;;;4.70;;
3523;SDS011;1776;53.330;11.498;2024-03-25T06:26:30;7.60;;;4.53;;
3523;SDS011;1776;53.330;11.498;2024-03-25T06:28:56;9.83;;;4.37;;
3523;SDS011;1776;53.330;11.498;2024-03-25T06:31:21;5.27;;;3.57;;
3523;SDS011;1776;53.330;11.498;2024-03-25T06:34:05;7.30;;;4.90;;
3523;SDS011;1776;53.330;11.498;2024-03-25T06:36:40;6.10;;;3.90;;
3523;SDS011;1776;53.330;11.498;2024-03-25T06:39:06;10.73;;;4.13;;
3523;SDS011;1776;53.330;11.498;2024-03-25T06:41:31;9.50;;;4.60;;
3523;SDS011;1776;53.330;11.498;2024-03-25T06:43:57;8.30;;;4.10;;
3523;SDS011;1776;53.330;11.498;2024-03-25T06:46:22;13.57;;;5.87;;
3523;SDS011;1776;53.330;11.498;2024-03-25T06:48:47;9.00;;;5.10;;
3523;SDS011;1776;53.330;11.498;2024-03-25T06:51:13;13.27;;;4.67;;
3523;SDS011;1776;53.330;11.498;2024-03-25T06:53:38;15.80;;;5.03;;
3523;SDS011;1776;53.330;11.498;2024-03-25T06:56:03;6.00;;;4.23;;
3523;SDS011;1776;53.330;11.498;2024-03-25T06:58:29;13.67;;;5.10;;
3523;SDS011;1776;53.330;11.498;2024-03-25T07:00:55;8.63;;;4.17;;
3523;SDS011;1776;53.330;11.498;2024-03-25T07:03:22;9.03;;;4.47;;
3523;SDS011;1776;53.330;11.498;2024-03-25T07:05:48;9.60;;;4.23;;
3523;SDS011;1776;53.330;11.498;2024-03-25T07:08:17;5.57;;;3.13;;
3523;SDS011;1776;53.330;11.498;2024-03-25T07:10:44;6.73;;;4.00;;
3523;SDS011;1776;53.330;11.498;2024-03-25T07:13:10;6.37;;;3.63;;
3523;SDS011;1776;53.330;11.498;2024-03-25T07:15:35;10.53;;;4.70;;
3523;SDS011;1776;53.330;11.498;2024-03-25T07:18:01;7.43;;;4.07;;
3523;SDS011;1776;53.330;11.498;2024-03-25T07:20:26;5.90;;;3.20;;
3523;SDS011;1776;53.330;11.498;2024-03-25T07:22:54;9.40;;;3.57;;
3523;SDS011;1776;53.330;11.498;2024-03-25T07:25:20;8.13;;;3.60;;
3523;SDS011;1776;53.330;11.498;2024-03-25T07:27:46;5.73;;;3.80;;
3523;SDS011;1776;53.330;11.498;2024-03-25T07:30:11;8.40;;;4.27;;
3523;SDS011;1776;53.330;11.498;2024-03-25T07:32:37;6.70;;;3.20;;
3523;SDS011;1776;53.330;11.498;2024-03-25T07:35:02;7.83;;;2.37;;
3523;SDS011;1776;53.330;11.498;2024-03-25T07:37:29;4.33;;;2.73;;
3523;SDS011;1776;53.330;11.498;2024-03-25T07:39:55;10.53;;;3.63;;
3523;SDS011;1776;53.330;11.498;2024-03-25T07:42:20;8.73;;;3.27;;
3523;SDS011;1776;53.330;11.498;2024-03-25T07:44:45;6.27;;;2.80;;
3523;SDS011;1776;53.330;11.498;2024-03-25T07:47:10;3.73;;;2.70;;
3523;SDS011;1776;53.330;11.498;2024-03-25T07:49:36;7.30;;;2.47;;
3523;SDS011;1776;53.330;11.498;2024-03-25T07:52:01;6.40;;;2.30;;
3523;SDS011;1776;53.330;11.498;2024-03-25T07:54:27;6.23;;;3.83;;
3523;SDS011;1776;53.330;11.498;2024-03-25T07:56:52;8.60;;;2.93;;
3523;SDS011;1776;53.330;11.498;2024-03-25T07:59:18;5.53;;;3.10;;
3523;SDS011;1776;53.330;11.498;2024-03-25T08:01:43;4.10;;;2.50;;
3523;SDS011;1776;53.330;11.498;2024-03-25T08:04:09;4.77;;;2.97;;
3523;SDS011;1776;53.330;11.498;2024-03-25T08:06:34;5.70;;;2.77;;
3523;SDS011;1776;53.330;11.498;2024-03-25T08:08:59;3.83;;;2.93;;
3523;SDS011;1776;53.330;11.498;2024-03-25T08:11:25;5.33;;;3.13;;
3523;SDS011;1776;53.330;11.498;2024-03-25T08:13:50;6.73;;;3.10;;
3523;SDS011;1776;53.330;11.498;2024-03-25T08:16:15;8.90;;;2.20;;
3523;SDS011;1776;53.330;11.498;2024-03-25T08:18:40;3.50;;;1.87;;
3523;SDS011;1776;53.330;11.498;2024-03-25T08:21:06;4.63;;;2.40;;
3523;SDS011;1776;53.330;11.498;2024-03-25T08:23:31;3.80;;;1.97;;
3523;SDS011;1776;53.330;11.498;2024-03-25T08:25:56;4.80;;;2.13;;
3523;SDS011;1776;53.330;11.498;2024-03-25T08:28:21;33.53;;;4.20;;
3523;SDS011;1776;53.330;11.498;2024-03-25T08:30:47;9.27;;;3.00;;
3523;SDS011;1776;53.330;11.498;2024-03-25T08:33:12;6.13;;;3.70;;
3523;SDS011;1776;53.330;11.498;2024-03-25T08:35:37;3.63;;;3.00;;
3523;SDS011;1776;53.330;11.498;2024-03-25T08:38:03;6.20;;;3.27;;
3523;SDS011;1776;53.330;11.498;2024-03-25T08:40:28;2.90;;;2.00;;
3523;SDS011;1776;53.330;11.498;2024-03-25T08:42:54;4.93;;;2.37;;
3523;SDS011;1776;53.330;11.498;2024-03-25T08:45:19;5.73;;;2.47;;
3523;SDS011;1776;53.330;11.498;2024-03-25T08:47:44;4.07;;;2.30;;
3523;SDS011;1776;53.330;11.498;2024-03-25T08:50:10;3.37;;;2.17;;
3523;SDS011;1776;53.330;11.498;2024-03-25T08:52:35;3.23;;;1.83;;
3523;SDS011;1776;53.330;11.498;2024-03-25T08:55:00;11.17;;;2.33;;
3523;SDS011;1776;53.330;11.498;2024-03-25T08:57:25;3.83;;;2.77;;
3523;SDS011;1776;53.330;11.498;2024-03-25T08:59:51;2.57;;;1.93;;
3523;SDS011;1776;53.330;11.498;2024-03-25T09:02:16;4.33;;;2.37;;
3523;SDS011;1776;53.330;11.498;2024-03-25T09:04:42;3.97;;;1.97;;
3523;SDS011;1776;53.330;11.498;2024-03-25T09:07:07;3.60;;;2.60;;
3523;SDS011;1776;53.330;11.498;2024-03-25T09:09:33;5.93;;;2.10;;
3523;SDS011;1776;53.330;11.498;2024-03-25T09:12:17;5.20;;;3.23;;
3523;SDS011;1776;53.330;11.498;2024-03-25T09:14:42;5.50;;;2.20;;
3523;SDS011;1776;53.330;11.498;2024-03-25T09:17:07;2.60;;;1.83;;
3523;SDS011;1776;53.330;11.498;2024-03-25T09:19:32;6.53;;;2.87;;
3523;SDS011;1776;53.330;11.498;2024-03-25T09:21:58;4.30;;;1.80;;
3523;SDS011;1776;53.330;11.498;2024-03-25T09:24:23;2.53;;;1.63;;
3523;SDS011;1776;53.330;11.498;2024-03-25T09:26:51;3.70;;;1.50;;
3523;SDS011;1776;53.330;11.498;2024-03-25T09:29:16;7.00;;;1.67;;
3523;SDS011;1776;53.330;11.498;2024-03-25T09:31:41;3.70;;;1.70;;
3523;SDS011;1776;53.330;11.498;2024-03-25T09:34:07;4.30;;;1.93;;
3523;SDS011;1776;53.330;11.498;2024-03-25T09:36:32;1.40;;;1.20;;
3523;SDS011;1776;53.330;11.498;2024-03-25T09:38:58;1.90;;;1.40;;
3523;SDS011;1776;53.330;11.498;2024-03-25T09:41:23;3.10;;;1.40;;
3523;SDS011;1776;53.330;11.498;2024-03-25T09:43:51;9.13;;;1.90;;
3523;SDS011;1776;53.330;11.498;2024-03-25T09:46:18;3.17;;;1.63;;
3523;SDS011;1776;53.330;11.498;2024-03-25T09:48:44;2.53;;;1.83;;
3523;SDS011;1776;53.330;11.498;2024-03-25T09:51:09;5.23;;;1.40;;
3523;SDS011;1776;53.330;11.498;2024-03-25T09:53:35;6.23;;;2.90;;
3523;SDS011;1776;53.330;11.498;2024-03-25T09:56:01;2.63;;;2.30;;
3523;SDS011;1776;53.330;11.498;2024-03-25T09:58:26;4.17;;;2.80;;
3523;SDS011;1776;53.330;11.498;2024-03-25T10:00:53;3.90;;;2.63;;
3523;SDS011;1776;53.330;11.498;2024-03-25T10:03:20;4.07;;;2.50;;
3523;SDS011;1776;53.330;11.498;2024-03-25T10:05:45;4.20;;;3.17;;
3523;SDS011;1776;53.330;11.498;2024-03-25T10:08:10;9.00;;;3.10;;
3523;SDS011;1776;53.330;11.498;2024-03-25T10:10:36;4.60;;;2.93;;
3523;SDS011;1776;53.330;11.498;2024-03-25T10:13:05;5.57;;;2.60;;
3523;SDS011;1776;53.330;11.498;2024-03-25T10:15:30;11.60;;;3.40;;
3523;SDS011;1776;53.330;11.498;2024-03-25T10:17:57;4.83;;;3.20;;
3523;SDS011;1776;53.330;11.498;2024-03-25T10:20:22;4.43;;;3.50;;
3523;SDS011;1776;53.330;11.498;2024-03-25T10:22:47;4.20;;;3.60;;
3523;SDS011;1776;53.330;11.498;2024-03-25T10:28:00;6.93;;;4.10;;
3523;SDS011;1776;53.330;11.498;2024-03-25T10:30:26;4.30;;;3.50;;
3523;SDS011;1776;53.330;11.498;2024-03-25T10:33:02;6.20;;;5.20;;
3523;SDS011;1776;53.330;11.498;2024-03-25T10:35:29;5.30;;;3.73;;
3523;SDS011;1776;53.330;11.498;2024-03-25T10:37:58;5.87;;;3.50;;
3523;SDS011;1776;53.330;11.498;2024-03-25T10:40:31;6.37;;;4.40;;
3523;SDS011;1776;53.330;11.498;2024-03-25T10:43:01;5.77;;;5.20;;
3523;SDS011;1776;53.330;11.498;2024-03-25T10:45:30;4.50;;;4.10;;
3523;SDS011;1776;53.330;11.498;2024-03-25T10:48:02;4.30;;;3.90;;
3523;SDS011;1776;53.330;11.498;2024-03-25T10:50:32;4.60;;;2.83;;
3523;SDS011;1776;53.330;11.498;2024-03-25T10:52:59;5.47;;;2.20;;
3523;SDS011;1776;53.330;11.498;2024-03-25T10:55:27;2.87;;;2.50;;
3523;SDS011;1776;53.330;11.498;2024-03-25T10:57:54;2.60;;;1.70;;
3523;SDS011;1776;53.330;11.498;2024-03-25T11:00:19;6.47;;;2.13;;
3523;SDS011;1776;53.330;11.498;2024-03-25T11:02:47;2.10;;;1.70;;
3523;SDS011;1776;53.330;11.498;2024-03-25T11:05:13;2.33;;;1.50;;
3523;SDS011;1776;53.330;11.498;2024-03-25T11:07:40;1.90;;;1.33;;
3523;SDS011;1776;53.330;11.498;2024-03-25T11:10:06;2.70;;;1.20;;
3523;SDS011;1776;53.330;11.498;2024-03-25T11:12:35;3.50;;;1.40;;
3523;SDS011;1776;53.330;11.498;2024-03-25T11:15:02;3.90;;;1.50;;
3523;SDS011;1776;53.330;11.498;2024-03-25T11:17:28;5.27;;;2.00;;
3523;SDS011;1776;53.330;11.498;2024-03-25T11:19:54;4.97;;;1.60;;
3523;SDS011;1776;53.330;11.498;2024-03-25T11:22:31;3.67;;;2.50;;
3523;SDS011;1776;53.330;11.498;2024-03-25T11:24:57;5.60;;;2.07;;
3523;SDS011;1776;53.330;11.498;2024-03-25T11:27:22;3.50;;;2.70;;
3523;SDS011;1776;53.330;11.498;2024-03-25T11:29:51;4.47;;;3.40;;
3523;SDS011;1776;53.330;11.498;2024-03-25T11:32:16;4.80;;;3.87;;
3523;SDS011;1776;53.330;11.498;2024-03-25T11:34:49;6.90;;;3.80;;
3523;SDS011;1776;53.330;11.498;2024-03-25T11:37:15;5.37;;;3.77;;
3523;SDS011;1776;53.330;11.498;2024-03-25T11:39:40;3.60;;;3.27;;
3523;SDS011;1776;53.330;11.498;2024-03-25T11:42:05;6.40;;;2.80;;
3523;SDS011;1776;53.330;11.498;2024-03-25T11:44:35;4.80;;;2.53;;
3523;SDS011;1776;53.330;11.498;2024-03-25T11:47:02;5.40;;;3.13;;
3523;SDS011;1776;53.330;11.498;2024-03-25T11:49:28;12.67;;;3.50;;
3523;SDS011;1776;53.330;11.498;2024-03-25T11:51:53;5.90;;;3.43;;
3523;SDS011;1776;53.330;11.498;2024-03-25T11:54:18;6.90;;;3.10;;
3523;SDS011;1776;53.330;11.498;2024-03-25T11:56:44;3.43;;;2.77;;
3523;SDS011;1776;53.330;11.498;2024-03-25T11:59:09;3.93;;;3.00;;
3523;SDS011;1776;53.330;11.498;2024-03-25T12:01:36;2.80;;;2.10;;
3523;SDS011;1776;53.330;11.498;2024-03-25T12:04:15;3.20;;;2.13;;
3523;SDS011;1776;53.330;11.498;2024-03-25T12:06:41;6.80;;;3.53;;
3523;SDS011;1776;53.330;11.498;2024-03-25T12:09:08;2.60;;;2.40;;
3523;SDS011;1776;53.330;11.498;2024-03-25T12:11:52;4.83;;;2.60;;
3523;SDS011;1776;53.330;11.498;2024-03-25T12:14:17;3.70;;;2.73;;
3523;SDS011;1776;53.330;11.498;2024-03-25T12:16:44;6.30;;;3.07;;
3523;SDS011;1776;53.330;11.498;2024-03-25T12:19:09;5.60;;;3.40;;
3523;SDS011;1776;53.330;11.498;2024-03-25T12:21:36;4.80;;;2.47;;
3523;SDS011;1776;53.330;11.498;2024-03-25T12:24:02;2.50;;;2.20;;
3523;SDS011;1776;53.330;11.498;2024-03-25T12:26:27;5.83;;;2.47;;
3523;SDS011;1776;53.330;11.498;2024-03-25T12:28:55;4.90;;;2.20;;
3523;SDS011;1776;53.330;11.498;2024-03-25T12:31:23;8.13;;;2.53;;
3523;SDS011;1776;53.330;11.498;2024-03-25T12:33:49;2.10;;;1.90;;
3523;SDS011;1776;53.330;11.498;2024-03-25T12:36:14;2.07;;;1.60;;
3523;SDS011;1776;53.330;11.498;2024-03-25T12:38:39;5.97;;;1.37;;
3523;SDS011;1776;53.330;11.498;2024-03-25T12:41:05;1.70;;;1.23;;
3523;SDS011;1776;53.330;11.498;2024-03-25T12:43:35;3.40;;;2.17;;
3523;SDS011;1776;53.330;11.498;2024-03-25T12:46:01;3.53;;;2.20;;
3523;SDS011;1776;53.330;11.498;2024-03-25T12:48:29;2.63;;;1.37;;
3523;SDS011;1776;53.330;11.498;2024-03-25T12:50:54;1.60;;;1.27;;
3523;SDS011;1776;53.330;11.498;2024-03-25T12:53:20;1.83;;;1.37;;
3523;SDS011;1776;53.330;11.498;2024-03-25T12:55:45;4.10;;;1.57;;
3523;SDS011;1776;53.330;11.498;2024-03-25T12:58:11;1.97;;;1.77;;
3523;SDS011;1776;53.330;11.498;2024-03-25T13:00:36;4.00;;;1.87;;
3523;SDS011;1776;53.330;11.498;2024-03-25T13:03:03;2.77;;;2.10;;
3523;SDS011;1776;53.330;11.498;2024-03-25T13:05:29;1.80;;;1.70;;
3523;SDS011;1776;53.330;11.498;2024-03-25T13:07:54;4.10;;;1.63;;
3523;SDS011;1776;53.330;11.498;2024-03-25T13:10:20;1.50;;;1.40;;
3523;SDS011;1776;53.330;11.498;2024-03-25T13:12:45;2.70;;;2.13;;
3523;SDS011;1776;53.330;11.498;2024-03-25T13:15:11;4.73;;;2.50;;
3523;SDS011;1776;53.330;11.498;2024-03-25T13:17:36;6.10;;;2.00;;
3523;SDS011;1776;53.330;11.498;2024-03-25T13:20:01;7.33;;;2.33;;
3523;SDS011;1776;53.330;11.498;2024-03-25T13:22:28;5.93;;;2.70;;
3523;SDS011;1776;53.330;11.498;2024-03-25T13:24:56;2.80;;;2.03;;
3523;SDS011;1776;53.330;11.498;2024-03-25T13:27:21;5.87;;;2.60;;
3523;SDS011;1776;53.330;11.498;2024-03-25T13:29:46;10.00;;;3.03;;
3523;SDS011;1776;53.330;11.498;2024-03-25T13:32:11;4.20;;;2.50;;
3523;SDS011;1776;53.330;11.498;2024-03-25T13:34:37;7.57;;;1.93;;
3523;SDS011;1776;53.330;11.498;2024-03-25T13:37:02;10.07;;;2.50;;
3523;SDS011;1776;53.330;11.498;2024-03-25T13:39:27;5.03;;;2.30;;
3523;SDS011;1776;53.330;11.498;2024-03-25T13:41:53;7.70;;;2.80;;
3523;SDS011;1776;53.330;11.498;2024-03-25T13:44:18;7.40;;;2.40;;
3523;SDS011;1776;53.330;11.498;2024-03-25T13:46:43;7.77;;;2.53;;
3523;SDS011;1776;53.330;11.498;2024-03-25T13:49:08;4.77;;;2.07;;
3523;SDS011;1776;53.330;11.498;2024-03-25T13:51:35;3.93;;;2.20;;
3523;SDS011;1776;53.330;11.498;2024-03-25T13:54:01;3.80;;;2.00;;
3523;SDS011;1776;53.330;11.498;2024-03-25T13:56:27;4.17;;;2.30;;
3523;SDS011;1776;53.330;11.498;2024-03-25T13:58:52;6.43;;;2.20;;
3523;SDS011;1776;53.330;11.498;2024-03-25T14:01:18;2.93;;;2.13;;
3523;SDS011;1776;53.330;11.498;2024-03-25T14:03:43;4.60;;;2.47;;
3523;SDS011;1776;53.330;11.498;2024-03-25T14:06:08;5.23;;;2.30;;
3523;SDS011;1776;53.330;11.498;2024-03-25T14:08:33;6.00;;;2.03;;
3523;SDS011;1776;53.330;11.498;2024-03-25T14:10:59;2.80;;;2.60;;
3523;SDS011;1776;53.330;11.498;2024-03-25T14:13:26;8.17;;;2.50;;
3523;SDS011;1776;53.330;11.498;2024-03-25T14:15:51;5.27;;;2.17;;
3523;SDS011;1776;53.330;11.498;2024-03-25T14:18:17;4.23;;;1.80;;
3523;SDS011;1776;53.330;11.498;2024-03-25T14:20:42;7.70;;;2.00;;
3523;SDS011;1776;53.330;11.498;2024-03-25T14:23:07;5.10;;;2.27;;
3523;SDS011;1776;53.330;11.498;2024-03-25T14:25:33;7.03;;;2.10;;
3523;SDS011;1776;53.330;11.498;2024-03-25T14:27:58;8.03;;;2.50;;
3523;SDS011;1776;53.330;11.498;2024-03-25T14:30:23;2.93;;;1.60;;
3523;SDS011;1776;53.330;11.498;2024-03-25T14:32:49;5.47;;;1.83;;
3523;SDS011;1776;53.330;11.498;2024-03-25T14:35:14;8.63;;;1.90;;
3523;SDS011;1776;53.330;11.498;2024-03-25T14:37:39;4.90;;;2.10;;
3523;SDS011;1776;53.330;11.498;2024-03-25T14:40:05;7.00;;;3.07;;
3523;SDS011;1776;53.330;11.498;2024-03-25T14:42:30;6.77;;;2.60;;
3523;SDS011;1776;53.330;11.498;2024-03-25T14:44:57;7.10;;;2.80;;
3523;SDS011;1776;53.330;11.498;2024-03-25T14:47:23;10.43;;;2.87;;
3523;SDS011;1776;53.330;11.498;2024-03-25T14:49:48;7.73;;;2.30;;
3523;SDS011;1776;53.330;11.498;2024-03-25T14:52:13;10.33;;;2.50;;
3523;SDS011;1776;53.330;11.498;2024-03-25T14:54:39;5.93;;;2.20;;